Time;durP1;ratioP1;P1;durP2;ratioP2;P2;SDS_P1;SDS_P2;PMS_P1;PMS_P2;Temp;Humidity;BMP_temperature;BMP_pressure;BME280_temperature;BME280_humidity;BME280_pressure;Samples;Min_cycle;Max_cycle;Signal;HPM_P1;HPM_P2
2021/12/12 00:01:39;;;;;;;27.15;14.60;;;0.10;68.80;;;;;;5033822;28;20136;-25
2021/12/12 00:04:15;;;;;;;36.33;21.92;;;0.10;68.70;;;;;;5033821;28;20021;-25
2021/12/12 00:06:49;;;;;;;32.50;19.00;;;0.10;68.90;;;;;;5033753;28;20057;-25
2021/12/12 00:09:23;;;;;;;;;;;0.00;70.10;;;;;;5034056;28;20030;-25
2021/12/12 00:11:50;;;;;;;32.50;18.27;;;0.00;70.20;;;;;;5034025;28;20277;-25
2021/12/12 00:14:25;;;;;;;28.45;17.45;;;0.00;71.90;;;;;;5033391;28;20032;-25
2021/12/12 00:16:53;;;;;;;29.15;18.17;;;0.00;70.50;;;;;;5033313;28;20036;-25
2021/12/12 00:19:20;;;;;;;28.83;16.48;;;0.00;71.30;;;;;;5033096;28;20029;-25
2021/12/12 00:21:50;;;;;;;33.72;19.35;;;0.00;71.50;;;;;;5033203;28;20396;-25
2021/12/12 00:24:17;;;;;;;26.48;15.65;;;0.00;71.50;;;;;;5033275;28;20076;-26
2021/12/12 00:26:47;;;;;;;27.08;14.82;;;0.00;70.90;;;;;;5033091;28;20111;-25
2021/12/12 00:29:16;;;;;;;30.27;16.40;;;0.00;71.10;;;;;;5033096;28;20571;-25
2021/12/12 00:31:43;;;;;;;37.90;22.42;;;0.00;70.90;;;;;;5031887;28;20448;-25
2021/12/12 00:34:09;;;;;;;15.73;9.15;;;0.00;71.50;;;;;;5033417;28;20024;-25
2021/12/12 00:36:38;;;;;;;17.95;10.68;;;0.00;71.10;;;;;;5032561;28;20095;-24
2021/12/12 00:39:11;;;;;;;20.55;11.23;;;0.00;70.80;;;;;;5033257;28;20041;-27
2021/12/12 00:41:56;;;;;;;15.47;7.80;;;0.00;70.30;;;;;;5033060;28;20033;-27
2021/12/12 00:44:24;;;;;;;10.27;5.22;;;0.00;70.10;;;;;;5032892;28;20498;-25
2021/12/12 00:46:52;;;;;;;23.50;12.20;;;0.00;70.30;;;;;;5033014;28;20021;-24
2021/12/12 00:49:19;;;;;;;16.60;8.23;;;0.00;70.10;;;;;;5033224;28;20022;-25
2021/12/12 00:51:46;;;;;;;17.30;10.85;;;0.00;70.40;;;;;;5033131;28;20033;-24
2021/12/12 00:54:15;;;;;;;20.55;11.77;;;0.00;70.90;;;;;;5032770;28;20033;-25
2021/12/12 00:56:41;;;;;;;34.15;22.20;;;0.00;70.20;;;;;;5032864;28;20026;-24
2021/12/12 00:59:09;;;;;;;17.73;11.00;;;-0.10;71.10;;;;;;5032918;28;20030;-24
2021/12/12 01:01:56;;;;;;;26.92;16.13;;;-0.10;71.20;;;;;;5033161;28;20037;-24
2021/12/12 01:04:46;;;;;;;25.00;13.85;;;-0.10;71.00;;;;;;5032608;28;20025;-25
2021/12/12 01:07:19;;;;;;;24.52;13.00;;;-0.20;70.40;;;;;;5033460;28;20485;-24
2021/12/12 01:09:53;;;;;;;28.27;16.02;;;-0.20;71.50;;;;;;5033597;28;20036;-24
2021/12/12 01:12:24;;;;;;;10.73;6.75;;;-0.20;71.50;;;;;;5033244;28;20064;-24
2021/12/12 01:14:57;;;;;;;11.15;6.22;;;-0.20;71.00;;;;;;5032737;28;20017;-24
2021/12/12 01:17:34;;;;;;;17.92;10.45;;;-0.20;70.80;;;;;;5032935;28;20072;-24
2021/12/12 01:20:11;;;;;;;16.55;8.45;;;-0.20;70.50;;;;;;5032860;28;20125;-24
2021/12/12 01:22:40;;;;;;;15.10;8.85;;;-0.20;70.10;;;;;;5033688;28;20032;-23
2021/12/12 01:25:34;;;;;;;18.98;11.15;;;-0.30;70.70;;;;;;5033224;28;20026;-23
2021/12/12 01:28:02;;;;;;;15.43;8.52;;;-0.30;70.20;;;;;;5035659;28;20033;-26
2021/12/12 01:30:28;;;;;;;13.95;8.25;;;-0.30;70.40;;;;;;5036210;28;20050;-25
2021/12/12 01:32:56;;;;;;;12.52;6.22;;;-0.30;70.10;;;;;;5036561;28;20068;-24
2021/12/12 01:35:24;;;;;;;12.25;6.18;;;-0.30;70.70;;;;;;5036273;28;20500;-23
2021/12/12 01:40:44;;;;;;;18.58;10.80;;;-0.40;70.20;;;;;;5036485;28;20049;-25
2021/12/12 01:43:22;;;;;;;21.58;12.25;;;-0.40;70.20;;;;;;5036271;28;20033;-23
2021/12/12 01:46:00;;;;;;;13.02;6.90;;;-0.40;70.30;;;;;;5036046;28;20025;-24
2021/12/12 01:48:51;;;;;;;12.00;5.93;;;-0.40;70.30;;;;;;5036053;28;20021;-23
2021/12/12 01:51:19;;;;;;;31.27;17.15;;;-0.40;70.40;;;;;;5036249;28;20013;-25
2021/12/12 01:53:49;;;;;;;13.98;7.65;;;-0.40;70.50;;;;;;5035902;28;20112;-25
2021/12/12 01:56:53;;;;;;;11.93;6.82;;;-0.50;70.20;;;;;;5035690;28;20026;-24
2021/12/12 01:59:23;;;;;;;11.52;5.78;;;-0.50;70.40;;;;;;5036049;28;20060;-23
2021/12/12 02:02:11;;;;;;;12.48;7.47;;;-0.50;70.60;;;;;;5036050;28;20018;-24
2021/12/12 02:04:45;;;;;;;16.98;9.40;;;-0.50;70.80;;;;;;5034226;28;20033;-23
2021/12/12 02:07:14;;;;;;;21.98;12.82;;;-0.60;70.40;;;;;;5035703;28;20036;-23
2021/12/12 02:09:42;;;;;;;19.30;10.50;;;-0.60;70.60;;;;;;5035886;28;20051;-24
2021/12/12 02:12:10;;;;;;;16.38;8.82;;;-0.60;70.20;;;;;;5036423;28;20021;-24
2021/12/12 02:14:39;;;;;;;16.73;9.32;;;-0.60;70.60;;;;;;5035304;28;20033;-23
2021/12/12 02:17:33;;;;;;;19.85;10.05;;;-0.60;70.40;;;;;;5035680;28;20155;-22
2021/12/12 02:20:16;;;;;;;25.02;14.55;;;-0.60;70.30;;;;;;5035308;28;20044;-23
2021/12/12 02:36:20;;;;;;;16.40;7.68;;;-0.70;70.60;;;;;;5034792;28;20405;-24
2021/12/12 02:38:50;;;;;;;24.05;13.88;;;-0.70;70.60;;;;;;5034228;28;20040;-23
2021/12/12 02:41:20;;;;;;;16.80;9.20;;;-0.70;71.00;;;;;;5036127;28;20022;-23
2021/12/12 02:43:50;;;;;;;12.70;7.85;;;-0.70;70.90;;;;;;5034978;28;20028;-23
2021/12/12 02:46:28;;;;;;;18.20;10.25;;;-0.80;70.90;;;;;;5034737;28;20481;-23
2021/12/12 02:49:04;;;;;;;19.30;11.82;;;-0.70;71.20;;;;;;5035115;28;20393;-23
2021/12/12 02:51:31;;;;;;;17.92;10.43;;;-0.80;72.00;;;;;;5034725;28;20076;-23
2021/12/12 02:53:58;;;;;;;13.77;7.28;;;-0.80;71.50;;;;;;5034753;28;20029;-25
2021/12/12 02:56:32;;;;;;;16.00;9.50;;;-0.80;71.50;;;;;;5033294;28;20029;-24
2021/12/12 02:59:00;;;;;;;27.55;15.45;;;-0.80;71.10;;;;;;5034648;28;20124;-23
2021/12/12 03:01:54;;;;;;;23.67;14.60;;;-0.80;72.80;;;;;;5034997;28;20087;-25
2021/12/12 03:04:24;;;;;;;16.20;9.20;;;-0.80;71.90;;;;;;5034450;28;20046;-25
2021/12/12 03:06:51;;;;;;;21.92;13.27;;;-0.80;71.90;;;;;;5034594;28;20075;-26
2021/12/12 03:09:36;;;;;;;19.95;10.80;;;-0.80;71.50;;;;;;5034456;28;20108;-25
2021/12/12 03:12:09;;;;;;;23.33;13.27;;;-0.90;71.40;;;;;;5034448;28;20485;-24
2021/12/12 03:14:36;;;;;;;15.27;7.00;;;-0.90;71.60;;;;;;5034124;28;20045;-23
2021/12/12 03:17:10;;;;;;;13.55;7.10;;;-0.90;71.20;;;;;;5034256;28;20530;-24
2021/12/12 03:19:37;;;;;;;27.88;13.65;;;-0.90;71.20;;;;;;5034173;28;20072;-23
2021/12/12 03:22:08;;;;;;;18.23;9.68;;;-0.90;71.50;;;;;;5033003;28;20132;-23
2021/12/12 03:24:35;;;;;;;20.65;11.27;;;-1.00;71.20;;;;;;5034121;28;20064;-25
2021/12/12 03:27:04;;;;;;;10.50;5.65;;;-1.00;71.30;;;;;;5034482;28;20032;-24
2021/12/12 03:29:30;;;;;;;27.73;15.80;;;-1.00;71.40;;;;;;5032822;28;20034;-24
2021/12/12 03:32:00;;;;;;;23.23;12.80;;;-1.10;71.90;;;;;;5034357;28;20060;-22
2021/12/12 03:34:32;;;;;;;17.88;8.50;;;-1.10;71.60;;;;;;5033853;28;20061;-24
2021/12/12 03:36:58;;;;;;;11.57;6.95;;;-1.10;71.60;;;;;;5034211;28;20070;-23
2021/12/12 03:39:33;;;;;;;11.90;6.55;;;-1.20;71.80;;;;;;5034015;28;20036;-23
2021/12/12 03:42:05;;;;;;;11.20;6.38;;;-1.20;71.60;;;;;;5033942;28;20076;-23
2021/12/12 03:44:35;;;;;;;21.70;11.70;;;-1.20;71.60;;;;;;5033990;28;20033;-23
2021/12/12 03:47:26;;;;;;;9.50;5.45;;;-1.30;71.60;;;;;;5033733;28;20021;-24
2021/12/12 03:49:54;;;;;;;15.55;7.72;;;-1.30;71.50;;;;;;5033121;28;20037;-23
2021/12/12 03:52:21;;;;;;;12.88;6.05;;;-1.30;71.40;;;;;;5033902;28;20025;-23
2021/12/12 03:54:49;;;;;;;23.67;14.27;;;-1.30;71.40;;;;;;5033875;28;20439;-23
2021/12/12 03:57:18;;;;;;;16.02;8.07;;;-1.30;72.10;;;;;;5033609;28;20485;-25
2021/12/12 03:59:44;;;;;;;22.58;12.80;;;-1.30;72.20;;;;;;5032289;28;20033;-24
2021/12/12 04:02:11;;;;;;;14.70;6.93;;;-1.30;72.00;;;;;;5034066;28;20501;-21
2021/12/12 04:04:41;;;;;;;10.82;6.53;;;-1.30;71.70;;;;;;5033227;28;20032;-23
2021/12/12 04:07:24;;;;;;;16.83;8.20;;;-1.30;71.70;;;;;;5034452;28;20021;-22
2021/12/12 04:09:51;;;;;;;17.33;10.65;;;-1.30;71.70;;;;;;5033471;28;20494;-25
2021/12/12 04:12:19;;;;;;;16.15;9.88;;;-1.40;71.90;;;;;;5033306;28;20489;-22
2021/12/12 04:14:47;;;;;;;22.40;13.52;;;-1.40;72.00;;;;;;5033387;28;20025;-22
2021/12/12 04:17:17;;;;;;;14.45;8.35;;;-1.40;71.80;;;;;;5033291;28;20029;-22
2021/12/12 04:19:45;;;;;;;16.85;8.52;;;-1.40;71.50;;;;;;5033446;28;20041;-24
2021/12/12 04:22:12;;;;;;;18.83;11.60;;;-1.40;71.70;;;;;;5033545;28;20033;-23
2021/12/12 04:24:43;;;;;;;21.13;11.98;;;-1.50;71.70;;;;;;5033726;28;20037;-22
2021/12/12 04:27:11;;;;;;;15.88;8.20;;;-1.50;72.20;;;;;;5033451;28;20033;-22
2021/12/12 04:29:41;;;;;;;12.02;6.18;;;-1.50;72.00;;;;;;5033453;28;20049;-24
2021/12/12 04:32:13;;;;;;;9.23;4.93;;;-1.50;71.90;;;;;;5033362;28;20112;-23
2021/12/12 04:34:44;;;;;;;17.20;9.82;;;-1.60;71.80;;;;;;5033232;28;20050;-24
2021/12/12 04:37:11;;;;;;;10.43;5.18;;;-1.60;71.80;;;;;;5033324;28;20104;-23
2021/12/12 04:39:40;;;;;;;18.73;9.45;;;-1.50;71.60;;;;;;5033034;28;20481;-23
2021/12/12 04:42:15;;;;;;;19.95;11.52;;;-1.50;71.80;;;;;;5032970;28;20079;-23
2021/12/12 04:44:42;;;;;;;25.42;13.52;;;-1.50;72.10;;;;;;5033047;28;20079;-24
2021/12/12 04:50:18;;;;;;;12.43;6.72;;;-1.30;71.80;;;;;;5033260;28;20513;-21
2021/12/12 04:52:46;;;;;;;12.43;6.78;;;-1.30;71.90;;;;;;5032988;28;20025;-22
2021/12/12 04:55:16;;;;;;;14.88;8.70;;;-1.20;71.80;;;;;;5032892;28;20087;-21
2021/12/12 04:57:59;;;;;;;15.73;8.15;;;-1.10;71.70;;;;;;5032849;28;20025;-22
2021/12/12 05:00:34;;;;;;;13.47;7.00;;;-1.00;71.40;;;;;;5032744;28;20096;-22
2021/12/12 05:03:02;;;;;;;20.70;12.07;;;-1.00;71.20;;;;;;5036673;28;20347;-22
2021/12/12 05:05:52;;;;;;;13.32;6.80;;;-0.90;70.90;;;;;;5036327;28;20029;-21
2021/12/12 05:08:43;;;;;;;12.55;7.55;;;-0.80;70.90;;;;;;5036335;28;20060;-22
2021/12/12 05:11:19;;;;;;;18.40;9.80;;;-0.80;70.70;;;;;;5037061;28;20055;-22
2021/12/12 05:13:55;;;;;;;12.27;5.82;;;-0.80;70.70;;;;;;5036937;28;20025;-22
2021/12/12 05:16:29;;;;;;;31.63;17.75;;;-0.80;70.50;;;;;;5036416;28;20017;-24
2021/12/12 05:19:12;;;;;;;26.52;15.85;;;-0.80;70.70;;;;;;5036610;28;20061;-20
2021/12/12 05:21:44;;;;;;;20.73;10.20;;;-0.80;71.20;;;;;;5035246;28;20022;-23
2021/12/12 05:24:12;;;;;;;26.08;14.05;;;-0.90;70.80;;;;;;5037643;28;20029;-22
2021/12/12 05:26:50;;;;;;;10.38;5.75;;;-0.90;70.60;;;;;;5037052;28;20483;-23
2021/12/12 05:29:39;;;;;;;9.52;5.07;;;-0.90;70.40;;;;;;5036746;28;20063;-22
2021/12/12 05:32:08;;;;;;;26.35;15.15;;;-1.00;70.40;;;;;;5014401;28;20042;-22
2021/12/12 05:34:37;;;;;;;19.52;9.80;;;-1.00;70.60;;;;;;5014103;28;20124;-21
2021/12/12 05:37:05;;;;;;;16.27;9.68;;;-1.00;71.00;;;;;;5014821;28;20041;-22
2021/12/12 05:39:33;;;;;;;29.77;16.67;;;-1.00;70.60;;;;;;5014248;28;20065;-22
2021/12/12 05:41:59;;;;;;;14.65;8.05;;;-1.10;71.70;;;;;;5014276;28;20061;-22
2021/12/12 05:44:29;;;;;;;10.32;5.63;;;-1.10;71.30;;;;;;5014809;28;20030;-22
2021/12/12 05:47:02;;;;;;;26.38;13.98;;;-1.20;71.10;;;;;;5014205;28;20073;-22
2021/12/12 05:49:29;;;;;;;8.07;4.50;;;-1.20;71.20;;;;;;5014153;28;20030;-21
2021/12/12 05:51:55;;;;;;;9.18;4.50;;;-1.20;71.00;;;;;;5013984;28;20038;-22
2021/12/12 05:54:24;;;;;;;16.02;8.65;;;-1.30;70.90;;;;;;5013986;28;20028;-22
2021/12/12 05:56:51;;;;;;;19.00;9.98;;;-1.30;70.90;;;;;;5013960;28;20514;-23
2021/12/12 05:59:17;;;;;;;16.88;9.63;;;-1.30;71.10;;;;;;5013875;28;20061;-23
2021/12/12 06:01:44;;;;;;;11.93;5.32;;;-1.40;71.70;;;;;;5013874;28;20433;-23
2021/12/12 06:04:11;;;;;;;31.70;18.25;;;-1.40;71.60;;;;;;5013775;28;20465;-23
2021/12/12 06:06:42;;;;;;;8.30;4.85;;;-1.40;71.50;;;;;;5013638;28;20105;-23
2021/12/12 06:09:11;;;;;;;14.55;8.27;;;-1.50;71.60;;;;;;5025679;28;20060;-22
2021/12/12 06:11:40;;;;;;;9.05;4.65;;;-1.50;71.40;;;;;;5035662;28;20060;-22
2021/12/12 06:14:08;;;;;;;21.58;11.77;;;-1.50;71.40;;;;;;5035736;28;20447;-23
2021/12/12 06:16:35;;;;;;;7.55;4.32;;;-1.50;71.40;;;;;;5035392;28;20025;-23
2021/12/12 06:19:10;;;;;;;17.95;9.35;;;-1.60;71.30;;;;;;5035606;28;20049;-23
2021/12/12 06:21:37;;;;;;;13.73;7.95;;;-1.60;71.30;;;;;;5035655;28;20030;-24
2021/12/12 06:24:03;;;;;;;14.85;8.43;;;-1.60;71.60;;;;;;5035276;28;20390;-22
2021/12/12 06:26:30;;;;;;;12.02;6.90;;;-1.70;71.70;;;;;;5033812;28;20026;-22
2021/12/12 06:28:56;;;;;;;20.08;12.77;;;-1.70;71.80;;;;;;5035194;28;20083;-22
2021/12/12 06:31:24;;;;;;;18.35;9.43;;;-1.70;72.00;;;;;;5035215;28;20105;-22
2021/12/12 06:33:50;;;;;;;10.60;5.40;;;-1.80;72.90;;;;;;5035454;28;20125;-22
2021/12/12 06:36:17;;;;;;;9.23;5.45;;;-1.80;72.10;;;;;;5034724;28;20049;-23
2021/12/12 06:38:47;;;;;;;17.35;8.73;;;-1.80;72.30;;;;;;5033791;28;20081;-24
2021/12/12 06:41:14;;;;;;;33.63;17.52;;;-1.80;72.00;;;;;;5035655;28;20029;-23
2021/12/12 06:43:42;;;;;;;25.08;13.50;;;-1.80;72.80;;;;;;5034966;28;20029;-23
2021/12/12 06:46:09;;;;;;;18.63;10.55;;;-1.80;72.40;;;;;;5035189;28;20022;-24
2021/12/12 06:48:37;;;;;;;15.52;8.52;;;-1.80;72.20;;;;;;5034951;28;20033;-24
2021/12/12 06:51:05;;;;;;;14.23;8.02;;;-1.80;72.90;;;;;;5034796;28;20045;-24
2021/12/12 06:53:34;;;;;;;17.65;10.13;;;-1.80;72.80;;;;;;5034799;28;20398;-25
2021/12/12 06:56:02;;;;;;;18.25;10.55;;;-1.80;72.50;;;;;;5034984;28;20043;-25
2021/12/12 06:58:30;;;;;;;17.02;8.95;;;-1.80;73.80;;;;;;5034422;28;20032;-24
2021/12/12 07:01:05;;;;;;;12.40;8.10;;;-1.80;73.40;;;;;;5034644;28;20025;-23
2021/12/12 07:03:32;;;;;;;20.00;11.93;;;-1.80;73.10;;;;;;5035249;28;20022;-24
2021/12/12 07:06:00;;;;;;;11.10;6.90;;;-1.80;74.50;;;;;;5034757;28;20029;-23
2021/12/12 07:08:26;;;;;;;18.23;10.50;;;-1.80;74.00;;;;;;5034338;28;20030;-23
2021/12/12 07:10:52;;;;;;;11.85;6.20;;;-1.80;74.30;;;;;;5034579;28;20022;-22
2021/12/12 07:13:19;;;;;;;10.60;4.80;;;-1.80;73.20;;;;;;5034394;28;20024;-24
2021/12/12 07:15:57;;;;;;;18.88;9.25;;;-1.80;72.60;;;;;;5034354;28;20032;-24
2021/12/12 07:18:28;;;;;;;10.55;5.22;;;-1.70;72.70;;;;;;5034102;28;20112;-21
2021/12/12 07:20:58;;;;;;;8.45;4.65;;;-1.70;73.20;;;;;;5034615;28;20032;-21
2021/12/12 07:23:24;;;;;;;26.80;16.52;;;-1.60;72.90;;;;;;5034475;28;20034;-22
2021/12/12 07:25:52;;;;;;;9.85;5.35;;;-1.60;73.10;;;;;;5033872;28;20047;-22
2021/12/12 07:28:18;;;;;;;11.30;6.00;;;-1.50;72.70;;;;;;5033931;28;20030;-22
2021/12/12 07:30:47;;;;;;;21.40;11.60;;;-1.50;72.70;;;;;;5034560;28;20563;-23
2021/12/12 07:33:14;;;;;;;28.65;15.30;;;-1.50;72.80;;;;;;5034057;28;20481;-22
2021/12/12 07:35:42;;;;;;;10.98;5.22;;;-1.40;72.80;;;;;;5032382;28;20136;-22
2021/12/12 07:38:15;;;;;;;9.25;4.57;;;-1.40;72.80;;;;;;5034187;28;20033;-21
2021/12/12 07:40:45;;;;;;;43.65;22.88;;;-1.30;72.40;;;;;;5033832;28;20516;-22
2021/12/12 07:43:12;;;;;;;16.23;9.20;;;-1.30;73.20;;;;;;5034136;28;20032;-21
2021/12/12 07:45:39;;;;;;;12.15;7.03;;;-1.20;73.00;;;;;;5034179;28;20041;-21
2021/12/12 07:48:08;;;;;;;27.17;15.55;;;-1.20;72.70;;;;;;5033866;28;20029;-20
2021/12/12 07:50:35;;;;;;;35.00;17.92;;;-1.20;74.20;;;;;;5033741;28;20175;-23
2021/12/12 07:53:01;;;;;;;18.25;11.48;;;-1.10;74.00;;;;;;5033672;28;20033;-21
2021/12/12 07:55:27;;;;;;;28.45;15.70;;;-1.00;73.10;;;;;;5033637;28;20109;-21
2021/12/12 07:57:54;;;;;;;19.35;10.35;;;-1.00;74.00;;;;;;5033926;28;20065;-22
2021/12/12 08:00:24;;;;;;;23.85;13.82;;;-0.90;73.50;;;;;;5033574;28;20030;-21
2021/12/12 08:02:53;;;;;;;43.85;23.88;;;-0.80;73.10;;;;;;5033558;28;20033;-21
2021/12/12 08:05:28;;;;;;;30.05;16.83;;;-0.70;73.30;;;;;;5033336;28;20040;-20
2021/12/12 08:07:58;;;;;;;33.78;18.00;;;-0.60;73.70;;;;;;5033749;28;20497;-22
2021/12/12 08:10:26;;;;;;;37.72;19.92;;;-0.50;73.40;;;;;;5033498;28;20025;-22
2021/12/12 08:12:52;;;;;;;33.00;19.60;;;-0.40;73.50;;;;;;5033327;28;20025;-22
2021/12/12 08:15:18;;;;;;;38.53;22.13;;;-0.30;73.10;;;;;;5033912;28;20049;-22
2021/12/12 08:17:46;;;;;;;20.85;11.95;;;-0.10;73.30;;;;;;5033301;28;20555;-21
2021/12/12 08:20:14;;;;;;;18.33;9.70;;;0.00;73.00;;;;;;5033120;28;20033;-22
2021/12/12 08:22:41;;;;;;;24.88;14.73;;;0.10;72.70;;;;;;5033279;28;20037;-22
2021/12/12 08:25:12;;;;;;;21.90;13.25;;;0.30;72.40;;;;;;5033163;28;20509;-22
2021/12/12 08:27:39;;;;;;;25.17;14.32;;;0.50;72.30;;;;;;5033203;28;20470;-22
2021/12/12 08:30:07;;;;;;;18.83;10.63;;;0.70;72.10;;;;;;5033943;28;20474;-23
2021/12/12 08:32:33;;;;;;;16.98;10.18;;;0.90;72.10;;;;;;5033231;28;20083;-23
2021/12/12 08:35:00;;;;;;;28.95;17.27;;;1.10;72.00;;;;;;5032887;28;20049;-23
2021/12/12 08:37:28;;;;;;;34.63;21.45;;;1.40;71.80;;;;;;5032704;28;20100;-21
2021/12/12 08:39:55;;;;;;;20.25;11.88;;;1.60;73.20;;;;;;5033062;28;20105;-24
2021/12/12 08:42:26;;;;;;;13.40;7.70;;;1.80;73.00;;;;;;5032815;28;20034;-23
2021/12/12 08:44:54;;;;;;;11.23;6.45;;;2.00;71.70;;;;;;5033058;28;20053;-24
2021/12/12 08:47:21;;;;;;;12.77;7.40;;;2.20;71.20;;;;;;5032962;28;20026;-25
2021/12/12 08:49:48;;;;;;;14.30;8.23;;;2.40;70.90;;;;;;5032894;28;20536;-24
2021/12/12 08:52:24;;;;;;;18.17;11.23;;;2.50;70.60;;;;;;5032853;28;20033;-23
2021/12/12 08:54:52;;;;;;;14.07;8.15;;;2.70;70.70;;;;;;5032982;28;20068;-23
2021/12/12 08:57:32;;;;;;;26.25;14.40;;;2.90;70.30;;;;;;5032884;28;20022;-23
2021/12/12 09:00:01;;;;;;;16.63;9.65;;;3.10;70.40;;;;;;5033180;28;20120;-23
2021/12/12 09:02:27;;;;;;;15.95;9.55;;;3.30;70.30;;;;;;5032659;28;20489;-23
2021/12/12 09:05:01;;;;;;;20.83;12.55;;;3.50;70.00;;;;;;5033079;28;20116;-23
2021/12/12 09:07:34;;;;;;;18.23;11.73;;;3.70;69.90;;;;;;5032878;28;20500;-25
2021/12/12 09:10:16;;;;;;;20.50;11.40;;;3.90;69.90;;;;;;5033064;28;20036;-23
2021/12/12 09:13:10;;;;;;;26.25;14.65;;;4.10;70.10;;;;;;5032838;28;20061;-23
2021/12/12 09:15:48;;;;;;;26.77;14.98;;;4.40;70.20;;;;;;5033910;28;20030;-23
2021/12/12 09:18:19;;;;;;;22.25;12.88;;;4.60;70.10;;;;;;5032882;28;20079;-24
2021/12/12 09:21:07;;;;;;;20.38;11.05;;;4.70;70.10;;;;;;5031934;28;20044;-24
2021/12/12 09:23:49;;;;;;;20.38;13.50;;;4.90;70.00;;;;;;5032953;28;20021;-24
2021/12/12 09:26:23;;;;;;;20.67;13.10;;;5.10;70.00;;;;;;5032585;28;20040;-24
2021/12/12 09:29:18;;;;;;;16.23;9.73;;;5.20;70.00;;;;;;5032669;28;20021;-25
2021/12/12 09:32:11;;;;;;;20.52;10.88;;;5.40;70.00;;;;;;5027795;28;20041;-23
2021/12/12 09:34:53;;;;;;;15.23;10.05;;;5.50;70.30;;;;;;5032395;28;20025;-24
2021/12/12 09:37:32;;;;;;;19.30;11.85;;;5.70;70.40;;;;;;5031150;28;20393;-25
2021/12/12 09:40:10;;;;;;;13.48;7.93;;;5.80;70.50;;;;;;5033625;28;20065;-24
2021/12/12 09:42:49;;;;;;;20.40;11.45;;;5.90;70.40;;;;;;5031093;28;20434;-24
2021/12/12 09:45:35;;;;;;;15.30;9.35;;;6.00;70.40;;;;;;5032564;28;20037;-24
2021/12/12 09:51:15;;;;;;;15.32;9.43;;;6.20;70.60;;;;;;5035984;28;20068;-23
2021/12/12 09:54:18;;;;;;;13.05;8.70;;;6.30;70.60;;;;;;5036619;28;20018;-24
2021/12/12 09:57:00;;;;;;;12.60;8.20;;;6.40;70.30;;;;;;5036145;28;20385;-23
2021/12/12 10:00:06;;;;;;;14.38;8.45;;;6.50;70.20;;;;;;5036363;28;20034;-24
2021/12/12 10:02:41;;;;;;;9.48;5.80;;;6.60;69.50;;;;;;5036156;28;20052;-24
2021/12/12 10:05:22;;;;;;;13.02;7.70;;;6.70;69.80;;;;;;5035680;28;20358;-24
2021/12/12 10:08:06;;;;;;;13.48;8.20;;;6.80;69.80;;;;;;5035993;28;20029;-23
2021/12/12 10:10:47;;;;;;;14.25;8.75;;;6.90;69.70;;;;;;5035971;28;20037;-24
2021/12/12 10:13:28;;;;;;;12.65;6.70;;;7.00;68.40;;;;;;5035616;28;20053;-23
2021/12/12 10:16:03;;;;;;;10.98;7.05;;;7.20;68.90;;;;;;5035598;28;20025;-23
2021/12/12 10:18:38;;;;;;;11.50;6.80;;;7.40;69.20;;;;;;5035192;28;20418;-23
2021/12/12 10:21:19;;;;;;;11.25;6.30;;;7.60;69.10;;;;;;5035713;28;20037;-24
2021/12/12 10:24:25;;;;;;;9.00;5.47;;;7.80;69.10;;;;;;5035808;28;20025;-23
2021/12/12 10:27:10;;;;;;;5.85;3.72;;;8.00;69.10;;;;;;5035852;28;20135;-24
2021/12/12 10:30:07;;;;;;;10.30;6.53;;;8.30;68.90;;;;;;5035324;28;20029;-23
2021/12/12 10:32:40;;;;;;;9.02;5.38;;;8.50;68.30;;;;;;5033090;28;20049;-24
2021/12/12 10:35:11;;;;;;;9.55;5.38;;;8.80;67.50;;;;;;5035294;28;20073;-23
2021/12/12 10:37:55;;;;;;;8.57;5.78;;;9.00;67.10;;;;;;5035182;28;20026;-24
2021/12/12 10:40:35;;;;;;;11.18;6.53;;;9.20;67.10;;;;;;5035175;28;20041;-23
2021/12/12 10:43:08;;;;;;;12.13;7.13;;;9.50;66.40;;;;;;5035088;28;20030;-23
2021/12/12 10:45:39;;;;;;;10.95;7.40;;;9.80;65.90;;;;;;5035338;28;20026;-23
2021/12/12 10:48:14;;;;;;;18.38;9.75;;;10.00;65.70;;;;;;5034845;28;20026;-23
2021/12/12 10:50:46;;;;;;;15.50;9.07;;;10.20;65.10;;;;;;5034789;28;20499;-23
2021/12/12 10:53:40;;;;;;;11.95;8.20;;;10.40;64.60;;;;;;5033592;28;20033;-24
2021/12/12 10:56:42;;;;;;;8.05;5.10;;;10.60;63.40;;;;;;5034870;28;20021;-23
2021/12/12 10:59:31;;;;;;;8.90;5.00;;;10.80;63.30;;;;;;5033905;28;20385;-23
2021/12/12 11:02:04;;;;;;;11.52;6.50;;;11.00;62.70;;;;;;5034844;28;20022;-24
2021/12/12 11:04:47;;;;;;;13.27;8.50;;;11.20;62.30;;;;;;5034813;28;20421;-22
2021/12/12 11:07:26;;;;;;;10.53;6.00;;;11.40;61.90;;;;;;5034478;28;20552;-23
2021/12/12 11:10:13;;;;;;;8.98;5.68;;;11.60;61.50;;;;;;5034556;28;20026;-23
2021/12/12 11:12:48;;;;;;;11.88;7.85;;;11.70;61.20;;;;;;5034471;28;20029;-24
2021/12/12 11:15:46;;;;;;;11.98;7.82;;;11.90;60.80;;;;;;5035088;28;20032;-23
2021/12/12 11:18:27;;;;;;;9.95;6.47;;;12.20;60.40;;;;;;5025828;28;20044;-24
2021/12/12 11:21:11;;;;;;;8.45;4.90;;;12.30;60.00;;;;;;5034441;28;20028;-23
2021/12/12 11:24:11;;;;;;;10.25;5.40;;;12.50;59.60;;;;;;5034226;28;20034;-24
2021/12/12 11:27:04;;;;;;;7.25;4.60;;;12.70;59.30;;;;;;5034236;28;20018;-24
2021/12/12 11:29:34;;;;;;;13.68;9.82;;;12.90;59.10;;;;;;5034139;28;20064;-24
2021/12/12 11:32:16;;;;;;;9.23;5.65;;;13.00;58.70;;;;;;5034466;28;20036;-23
2021/12/12 11:34:47;;;;;;;9.85;5.90;;;13.10;58.30;;;;;;5034426;28;20028;-23
2021/12/12 11:37:22;;;;;;;7.97;5.45;;;13.20;58.20;;;;;;5034243;28;20096;-24
2021/12/12 11:39:51;;;;;;;10.32;5.88;;;13.20;58.00;;;;;;5032616;28;20048;-23
2021/12/12 11:42:26;;;;;;;8.45;6.03;;;13.30;57.80;;;;;;5033729;28;20029;-24
2021/12/12 11:45:05;;;;;;;7.93;4.90;;;13.40;57.50;;;;;;5033923;28;20036;-24
2021/12/12 11:48:17;;;;;;;7.72;4.50;;;13.40;57.10;;;;;;5034183;28;20041;-24
2021/12/12 11:50:54;;;;;;;6.65;3.67;;;13.50;56.50;;;;;;5032490;28;20021;-24
2021/12/12 11:53:35;;;;;;;5.55;3.63;;;13.60;56.20;;;;;;5034029;28;20072;-24
2021/12/12 11:56:18;;;;;;;5.63;3.60;;;13.70;55.90;;;;;;5033734;28;20068;-24
2021/12/12 11:59:03;;;;;;;5.18;3.60;;;13.90;55.30;;;;;;5033635;28;20389;-23
2021/12/12 12:01:47;;;;;;;8.75;4.93;;;14.00;54.90;;;;;;5033609;28;20038;-23
2021/12/12 12:04:31;;;;;;;8.38;5.55;;;14.20;54.30;;;;;;5033358;28;20393;-23
2021/12/12 12:07:03;;;;;;;7.65;4.60;;;14.40;54.30;;;;;;5033301;28;20032;-23
2021/12/12 12:09:42;;;;;;;8.63;5.45;;;14.50;54.00;;;;;;5033425;28;20027;-23
2021/12/12 12:12:29;;;;;;;8.38;5.18;;;14.70;53.90;;;;;;5032601;28;20030;-24
2021/12/12 12:15:20;;;;;;;9.07;4.55;;;14.90;53.60;;;;;;5033382;28;20038;-24
2021/12/12 12:18:28;;;;;;;6.63;4.55;;;15.30;53.20;;;;;;5033707;28;20091;-23
2021/12/12 12:21:15;;;;;;;8.57;5.78;;;15.60;53.00;;;;;;5031880;28;20044;-23
2021/12/12 12:26:51;;;;;;;9.50;6.05;;;15.90;52.50;;;;;;5033336;28;20111;-23
2021/12/12 12:29:33;;;;;;;9.65;5.78;;;16.10;52.50;;;;;;5032983;28;20042;-24
2021/12/12 12:32:05;;;;;;;8.93;6.00;;;16.20;52.50;;;;;;5033380;28;20038;-24
2021/12/12 12:34:49;;;;;;;6.88;4.45;;;16.20;52.70;;;;;;5032661;28;20037;-24
2021/12/12 12:37:52;;;;;;;10.32;6.60;;;16.20;52.70;;;;;;5033383;28;20033;-23
2021/12/12 12:40:55;;;;;;;10.88;6.72;;;16.20;52.70;;;;;;5032815;28;20512;-23
2021/12/12 12:43:36;;;;;;;9.55;6.13;;;16.20;52.40;;;;;;5033867;28;20104;-24
2021/12/12 12:46:36;;;;;;;9.25;6.47;;;16.20;52.70;;;;;;5031826;28;20485;-24
2021/12/12 12:49:39;;;;;;;9.70;6.88;;;16.20;52.00;;;;;;5033042;28;20034;-23
2021/12/12 12:52:38;;;;;;;12.68;8.43;;;16.20;51.20;;;;;;5032888;28;20033;-23
2021/12/12 12:55:52;;;;;;;8.30;5.38;;;16.30;52.00;;;;;;5032934;28;20036;-24
2021/12/12 12:58:18;;;;;;;11.10;7.28;;;16.30;52.00;;;;;;5013487;28;20037;-23
2021/12/12 13:00:47;;;;;;;8.43;5.53;;;16.40;51.90;;;;;;5033194;28;20034;-24
2021/12/12 13:03:51;;;;;;;9.05;5.57;;;16.40;51.50;;;;;;5032891;28;20555;-24
2021/12/12 13:06:54;;;;;;;7.63;4.95;;;16.50;51.30;;;;;;5032588;28;20040;-24
2021/12/12 13:09:43;;;;;;;11.98;7.90;;;16.60;50.90;;;;;;5032828;28;20116;-24
2021/12/12 13:12:37;;;;;;;8.25;5.75;;;16.70;51.20;;;;;;5022425;28;20029;-24
2021/12/12 13:15:13;;;;;;;11.52;7.70;;;16.80;50.70;;;;;;5033087;28;20025;-23
2021/12/12 13:18:16;;;;;;;11.13;6.40;;;16.90;50.90;;;;;;5033048;28;20164;-24
2021/12/12 13:20:51;;;;;;;8.63;6.28;;;16.90;50.20;;;;;;5032843;28;20056;-24
2021/12/12 13:23:53;;;;;;;12.38;7.97;;;17.00;50.40;;;;;;5035541;28;20075;-24
2021/12/12 13:26:27;;;;;;;9.77;6.32;;;17.10;49.90;;;;;;5036715;28;20104;-24
2021/12/12 13:29:03;;;;;;;;;;;17.20;50.00;;;;;;5036884;28;20038;-24
2021/12/12 13:31:41;;;;;;;10.23;7.40;;;17.20;48.30;;;;;;5036730;28;19913;-23
2021/12/12 13:34:45;;;;;;;9.02;5.95;;;17.30;49.70;;;;;;5035170;28;20493;-23
2021/12/12 13:37:18;;;;;;;7.18;4.88;;;17.30;49.80;;;;;;5032309;28;20452;-23
2021/12/12 13:39:47;;;;;;;8.07;5.20;;;17.30;50.10;;;;;;5036748;28;20029;-23
2021/12/12 13:42:35;;;;;;;7.57;4.85;;;17.40;50.30;;;;;;5036345;28;20036;-23
2021/12/12 13:45:07;;;;;;;7.97;5.60;;;17.40;50.20;;;;;;5036522;28;20029;-24